»·PEaware :: SWA666 KLAS-KRNO

SWA666 :: KLAS-KRNO

FLIGHT INFORMATION

Flight Status: Arrived
Operator:
Southwest Airlines
More flights by this operator :: More flights under this callsign
Pilot: Nehseem A. (13724)
Aircraft: BOEING 737-800
(B738)
More flights by this aircraft type
Origin: KLAS McCarran Intl
United States
Destination: KRNO Reno/Tahoe Intl
United States
More flights between these airports :: More routes between these airports
Route: +SHEAD1 KENNO RUSME2
File this flight plan on PilotEdge
Remarks:
Altitude:
(Current/Filed)
32,000ft
Speed:
(Current/Filed)
437kts
Departed: 12-May-18 07:24 PM
Arrived: 12-May-18 08:23 PM
Distance/Time
Traveled:
300nm/0:59
Distance/Time
To Go:
Arrived

Flight Plot

Page will automatically refresh every two minutes.

Flight plan parsing failed; only flown route is shown


Map Options




Map Legend


Flown Route
Filed Route
Departure Airport
Arrival Airport
Navaid (VOR, NDB)
Fix

Horizontal Profiles

Position Reports

Time Latitude Longitude Heading Altitude Ground
Speed
12-May-18 18:59 36.079878 -115.139751 359 2189ft 0kts
12-May-18 19:00 36.079878 -115.139751 359 2189ft 0kts
12-May-18 19:01 36.079878 -115.139751 359 2189ft 0kts
12-May-18 19:02 36.079878 -115.139751 359 2189ft 0kts
12-May-18 19:03 36.079878 -115.139751 359 2189ft 0kts
12-May-18 19:04 36.079878 -115.139751 359 2189ft 0kts
12-May-18 19:05 36.079878 -115.139751 359 2189ft 0kts
12-May-18 19:06 36.079878 -115.139751 359 2189ft 0kts
12-May-18 19:07 36.079878 -115.139751 359 2189ft 0kts
12-May-18 19:08 36.079878 -115.139751 359 2189ft 0kts
12-May-18 19:09 36.079878 -115.139751 359 2189ft 0kts
12-May-18 19:10 36.079878 -115.139751 359 2189ft 0kts
12-May-18 19:11 36.079878 -115.139751 359 2189ft 0kts
12-May-18 19:12 36.079720 -115.139751 359 2189ft 2kts
12-May-18 19:13 36.079108 -115.139746 355 2189ft 1kts
12-May-18 19:14 36.078370 -115.139675 355 2189ft 3kts
12-May-18 19:15 36.078268 -115.139665 355 2189ft 0kts
12-May-18 19:16 36.078268 -115.139665 355 2189ft 0kts
12-May-18 19:17 36.078269 -115.139665 355 2189ft 0kts
12-May-18 19:18 36.078270 -115.139666 355 2189ft 0kts
12-May-18 19:19 36.078284 -115.139009 94 2189ft 10kts
12-May-18 19:20 36.078237 -115.132701 90 2189ft 21kts
12-May-18 19:21 36.078227 -115.125618 90 2189ft 19kts
12-May-18 19:22 36.077379 -115.121437 141 2189ft 0kts
12-May-18 19:23 36.076505 -115.121359 202 2189ft 8kts
12-May-18 19:24 36.076357 -115.135869 268 2189ft 127kts
12-May-18 19:25 36.077269 -115.193547 268 4288ft 194kts
12-May-18 19:26 36.062645 -115.261513 221 6564ft 246kts
12-May-18 19:27 35.991262 -115.280316 203 7047ft 263kts
12-May-18 19:28 35.937860 -115.341293 227 7993ft 261kts
12-May-18 19:29 35.886341 -115.410982 240 9075ft 284kts
12-May-18 19:30 35.887081 -115.507663 275 10261ft 295kts
12-May-18 19:31 35.888932 -115.615747 269 11088ft 327kts
12-May-18 19:32 35.891029 -115.727294 272 11810ft 334kts
12-May-18 19:33 35.893696 -115.841147 271 14481ft 334kts
12-May-18 19:34 35.899128 -115.955813 290 16622ft 338kts
12-May-18 19:35 35.960494 -116.044159 314 18450ft 346kts
12-May-18 19:36 36.019573 -116.113058 314 19717ft 352kts
12-May-18 19:37 36.091788 -116.196890 313 21057ft 360kts
12-May-18 19:38 36.165603 -116.282333 313 22281ft 367kts
12-May-18 19:39 36.241117 -116.369435 313 23344ft 373kts
12-May-18 19:40 36.317542 -116.458227 312 24893ft 382kts
12-May-18 19:41 36.396173 -116.550127 311 26705ft 394kts
12-May-18 19:42 36.475841 -116.643285 310 28856ft 392kts
12-May-18 19:43 36.554959 -116.735684 312 30771ft 392kts
12-May-18 19:44 36.648350 -116.812115 321 31900ft 414kts
12-May-18 19:45 36.750315 -116.889643 322 31910ft 444kts
12-May-18 19:46 36.856507 -116.970766 323 31918ft 447kts
12-May-18 19:47 36.962903 -117.051900 323 31930ft 446kts
12-May-18 19:48 37.068556 -117.132794 324 31950ft 445kts
12-May-18 19:49 37.173811 -117.213912 324 31967ft 444kts
12-May-18 19:50 37.279204 -117.295512 324 31979ft 443kts
12-May-18 19:51 37.374650 -117.391540 316 31989ft 439kts
12-May-18 19:52 37.467524 -117.491331 317 32022ft 441kts
12-May-18 19:53 37.549185 -117.607235 306 32027ft 441kts
12-May-18 19:54 37.624841 -117.728906 307 32027ft 441kts
12-May-18 19:55 37.700704 -117.851212 307 32005ft 441kts
12-May-18 19:56 37.776593 -117.972883 307 32003ft 441kts
12-May-18 19:57 37.852237 -118.094973 307 32002ft 441kts
12-May-18 19:58 37.927888 -118.217684 307 32001ft 441kts
12-May-18 19:59 38.003003 -118.340032 307 32007ft 440kts
12-May-18 20:00 38.078151 -118.462912 307 32059ft 442kts
12-May-18 20:01 38.153601 -118.586753 307 32067ft 443kts
12-May-18 20:02 38.228690 -118.710476 308 32066ft 443kts
12-May-18 20:03 38.303784 -118.834683 308 31428ft 440kts
12-May-18 20:04 38.376969 -118.955744 309 29523ft 420kts
12-May-18 20:05 38.446470 -119.071826 309 27623ft 404kts
12-May-18 20:06 38.513478 -119.185072 306 25490ft 394kts
12-May-18 20:07 38.555181 -119.266051 305 23895ft 392kts
12-May-18 20:08 38.601913 -119.357154 305 22091ft 389kts
12-May-18 20:09 38.660756 -119.471194 305 19781ft 371kts
12-May-18 20:10 38.715271 -119.577718 304 17480ft 347kts
12-May-18 20:11 38.766710 -119.678474 305 15182ft 331kts
12-May-18 20:12 38.824705 -119.759232 345 14055ft 290kts
12-May-18 20:13 38.904623 -119.768751 356 12961ft 299kts
12-May-18 20:14 38.987029 -119.772328 358 11758ft 289kts
12-May-18 20:15 39.065095 -119.775950 357 11062ft 264kts
12-May-18 20:16 39.135038 -119.776704 359 10409ft 239kts
12-May-18 20:17 39.199561 -119.775023 1 9513ft 219kts
12-May-18 20:18 39.257403 -119.772694 1 8850ft 187kts
12-May-18 20:19 39.310680 -119.767795 5 8757ft 203kts
12-May-18 20:20 39.370024 -119.763921 352 7233ft 212kts
12-May-18 20:21 39.426852 -119.769276 0 5763ft 193kts
12-May-18 20:22 39.475136 -119.769231 358 4671ft 156kts
12-May-18 20:23 39.506703 -119.769252 2 4423ft 39kts
12-May-18 20:24 39.510770 -119.770282 279 4423ft 0kts
12-May-18 20:25 39.510547 -119.770653 184 4423ft 5kts

Navigation Log

Ident Type
Flight plan parsing failed, navigation log unavailable